• Join FlightAware (Why Join?)
  • Login
  • US Flag 
11:40PM EDT


 

Airport Tracker/Info


-or-


 

Live Flight TrackerFlight Track Log ✈ UPS106 ✈ 22-Oct-2013 ✈ KSDF - KEWR

Flight Track Log - Related Links

Times and Time Zones

All times are in EDT time to prevent confusion due to time zone crossing. See the UPS106 flight status page for this flight to view local times or setup timezone preferences in your user account.

Time Position Orientation Groundspeed Altitude Reporting Facility
EDT Latitude Longitude Course Direction KTS MPH feet Rate Location/Type
04:53PM 38.0833 -85.6833 90° East 243 280 4,500  Level Louisville TRACON
04:54PM 38.0800 -85.6090 87° East 287 330 6,700 2,400 Climbing FlightAware
04:55PM 38.0803 -85.5817 92° East 287 330 7,500 2,460 Climbing Indianapolis Center
04:56PM 38.0710 -85.3610 93° East 380 437 12,100 2,700 Climbing FlightAware
04:59PM 38.0333 -85.0486 90° East  Level FlightAware Approximate
05:00PM 38.0430 -84.8430 92° East 499 574 21,300  Level FlightAware
05:04PM 38.0120 -84.2670 94° East 499 574 21,500 1,140 Climbing FlightAware
05:08PM 37.9393 -83.1623 94° East 572 658 31,000 1,980 Climbing FlightAware ADS-B
05:08PM 37.9377 -83.1378 95° East 572 658 31,000 1,380 Level FlightAware ADS-B
05:10PM 37.9193 -82.8778 95° East 571 657 33,000 660 Climbing FlightAware ADS-B
05:11PM 37.8973 -82.5749 95° East 571 657 33,000  Level FlightAware ADS-B
05:13PM 37.8683 -82.1925 95° East 574 661 33,000 120 Level FlightAware ADS-B
05:15PM 37.8300 -81.7120 96° East 571 657 33,700 300 Climbing FlightAware
05:16PM 37.8210 -81.6030 96° East 577 664 34,000 300 Climbing FlightAware
05:16PM 37.8132 -81.5112 96° East 571 657 34,000  Level FlightAware ADS-B
05:17PM 37.8046 -81.4075 96° East 584 672 34,000  Level FlightAware ADS-B
05:17PM 37.7957 -81.3020 96° East 585 673 34,000 60 Level FlightAware ADS-B
05:18PM 37.7840 -81.1260 95° East 592 681 34,100 300 Climbing FlightAware
05:19PM 37.7900 -80.9740 87° East 602 693 34,500 480 Climbing FlightAware
05:20PM 37.7970 -80.8740 85° East 607 699 34,700 420 Climbing FlightAware
05:20PM 37.8060 -80.7400 85° East 614 707 35,000 240 Climbing FlightAware
05:21PM 37.8110 -80.6560 86° East 616 709 35,000  Level FlightAware
05:21PM 37.8230 -80.4780 85° East 604 695 35,000  Level FlightAware
05:22PM 37.8300 -80.3570 86° East 599 689 35,000  Level FlightAware
05:23PM 37.8380 -80.2320 85° East 598 688 35,000  Level FlightAware
05:23PM 37.8460 -80.0940 86° East 599 689 35,000  Level FlightAware
05:24PM 37.8540 -79.9650 85° East 601 692 35,000  Level FlightAware
05:24PM 37.8610 -79.8360 86° East 603 694 35,000  Level FlightAware
05:25PM 37.8700 -79.6850 86° East 605 696 35,000  Level FlightAware
05:26PM 37.8770 -79.5440 86° East 606 697 35,000  Level FlightAware
05:27PM 37.8860 -79.3920 86° East 611 703 35,000  Level FlightAware
05:27PM 37.8920 -79.2740 86° East 611 703 35,000  Level FlightAware
05:28PM 37.8990 -79.1530 86° East 611 703 35,000  Level FlightAware
05:29PM 37.9200 -78.9440 83° East 622 716 35,000  Level FlightAware
05:29PM 37.9390 -78.7890 81° East 623 717 35,000  Level FlightAware
05:30PM 37.9610 -78.6050 81° East 620 713 35,000  Level FlightAware
05:31PM 37.9850 -78.4020 81° East 620 713 35,000  Level FlightAware
05:32PM 38.0120 -78.1970 80° East 626 720 35,000  Level FlightAware
05:33PM 38.0830 -78.0140 64° Northeast 628 723 35,000  Level FlightAware
05:34PM 38.1580 -77.8640 58° Northeast 627 722 35,000  Level FlightAware
05:35PM 38.2350 -77.7090 58° Northeast 626 720 35,000  Level FlightAware
05:36PM 38.3240 -77.5290 58° Northeast 626 720 35,000  Level FlightAware
05:36PM 38.3930 -77.3890 58° Northeast 626 720 35,000  Level FlightAware
05:37PM 38.4640 -77.2430 58° Northeast 627 722 35,000  Level FlightAware
05:38PM 38.5480 -77.0710 58° Northeast 627 722 35,000  Level FlightAware
05:39PM 38.5980 -76.9900 52° Northeast 618 711 35,000 -540 Level FlightAware
05:39PM 38.6600 -76.9050 47° Northeast 616 709 34,500 -1,620 Descending FlightAware
05:40PM 38.7740 -76.7470 47° Northeast 600 690 32,600 -1,980 Descending FlightAware
05:41PM 38.8790 -76.5940 49° Northeast 620 713 30,700 -2,280 Descending FlightAware
05:42PM 38.9810 -76.4440 49° Northeast 618 711 28,500 -2,580 Descending FlightAware
05:42PM 39.0250 -76.3830 47° Northeast 610 702 27,400 -1,200 Descending FlightAware
05:43PM 39.1310 -76.2530 44° Northeast 585 673 27,000 -300 Descending FlightAware
05:44PM 39.1820 -76.1930 42° Northeast 589 678 27,000  Level FlightAware
05:44PM 39.2766 -76.0820 42° Northeast 591 680 27,000  Level FlightAware ADS-B
05:45PM 39.3859 -75.9534 42° Northeast 590 679 27,000  Level FlightAware ADS-B
05:46PM 39.4480 -75.8800 42° Northeast 590 679 27,000 -1,020 Level FlightAware ADS-B
05:46PM 39.5171 -75.7983 42° Northeast 604 695 25,900 -2,040 Descending FlightAware ADS-B
05:47PM 39.5171 -75.7983 42° Northeast 598 688 24,700 -2,640 Descending FlightAware ADS-B
05:48PM 39.6970 -75.5840 42° Northeast 573 659 22,100 -3,300 Descending FlightAware
05:48PM 39.7368 -75.5362 43° Northeast 563 648 21,100 -3,600 Descending FlightAware ADS-B (KOQN)
05:49PM 39.7902 -75.4718 43° Northeast 547 629 19,700 -2,400 Descending FlightAware ADS-B (KOQN)
05:49PM 39.8492 -75.4004 43° Northeast 525 604 18,700 -2,280 Descending FlightAware ADS-B (KOQN)
05:50PM 39.9032 -75.3353 43° Northeast 503 579 17,200 -2,520 Descending FlightAware ADS-B (KOQN)
05:50PM 39.9706 -75.2534 43° Northeast 495 570 15,800 -1,800 Descending FlightAware ADS-B (KOQN)
05:51PM 40.0290 -75.1820 43° Northeast 469 540 14,700 -2,520 Descending FlightAware
05:52PM 40.1290 -75.0600 43° Northeast 436 502 11,200 -2,640 Descending FlightAware
05:53PM 40.1840 -74.9930 43° Northeast 406 467 10,300 -720 Descending FlightAware
05:53PM 40.2290 -74.9370 44° Northeast 329 379 10,300 -840 Level FlightAware
05:54PM 40.2620 -74.8950 44° Northeast 306 352 9,400 -1,920 Descending FlightAware
05:54PM 40.2890 -74.8570 47° Northeast 297 342 8,400 -1,140 Descending FlightAware
05:55PM 40.3270 -74.8010 48° Northeast 301 346 8,100 -540 Descending FlightAware
05:55PM 40.3440 -74.7590 62° Northeast 301 346 7,800 -1,020 Descending FlightAware
05:56PM 40.3650 -74.7110 60° Northeast 297 342 7,200 -1,320 Descending FlightAware
05:56PM 40.3840 -74.6670 60° Northeast 293 337 6,600 -1,140 Descending FlightAware
05:57PM 40.4000 -74.6290 61° Northeast 289 333 6,200 -480 Descending FlightAware
05:57PM 40.4180 -74.5880 60° Northeast 292 336 6,200  Level FlightAware
05:58PM 40.4490 -74.5480 44° Northeast 264 304 6,200 -120 Level FlightAware
05:59PM 40.4870 -74.5160 33° Northeast 264 304 6,100  Descending FlightAware
05:59PM 40.5330 -74.5230 353° North 242 278 6,200  Climbing FlightAware
06:00PM 40.5680 -74.5370 343° North 240 276 6,100  Descending FlightAware
06:00PM 40.6120 -74.5550 343° North 238 274 6,200 60 Climbing FlightAware
06:01PM 40.6420 -74.5670 343° North 237 273 6,200  Level FlightAware
06:01PM 40.6710 -74.5780 344° North 238 274 6,200  Level FlightAware
06:02PM 40.7070 -74.5740 North 255 293 6,200 -120 Level FlightAware
06:03PM 40.7500 -74.5490 24° Northeast 257 296 6,100 -120 Descending FlightAware
06:03PM 40.7720 -74.5360 24° Northeast 256 295 6,100 -300 Level FlightAware
06:03PM 40.8034 -74.5180 23° Northeast 255 293 5,900 -600 Descending FlightAware ADS-B
06:04PM 40.8209 -74.5079 24° Northeast 252 290 5,700 -900 Descending FlightAware ADS-B
06:04PM 40.8392 -74.4976 23° Northeast 249 287 5,400 -420 Descending FlightAware ADS-B
06:05PM 40.8828 -74.4433 43° Northeast 263 303 5,200 -300 Descending FlightAware ADS-B
06:05PM 40.8892 -74.4188 71° East 264 304 5,100  Descending FlightAware ADS-B
06:06PM 40.9090 -74.3450 70° East 265 305 5,200 -60 Climbing FlightAware
06:07PM 40.9323 -74.2626 69° East 258 297 5,000 -540 Descending FlightAware ADS-B
06:07PM 40.9312 -74.2231 92° East 258 297 4,500 -1,140 Descending FlightAware ADS-B
06:08PM 40.9280 -74.1939 98° East 259 298 4,200 -480 Descending FlightAware ADS-B
06:08PM 40.9118 -74.1449 114° Southeast 231 266 4,100  Descending FlightAware ADS-B
06:08PM 40.9050 -74.1270 117° Southeast 211 243 4,200 -240 Climbing FlightAware ADS-B
06:09PM 40.8985 -74.1098 117° Southeast 202 232 4,000 -1,080 Descending FlightAware ADS-B
06:09PM 40.8844 -74.0726 117° Southeast 202 232 3,300 -1,320 Descending FlightAware ADS-B
06:09PM 40.8818 -74.0686 131° Southeast 200 230 3,200 -1,320 Descending FlightAware ADS-B
06:09PM 40.8741 -74.0625 149° Southeast 195 224 3,000 -1,380 Descending FlightAware ADS-B
06:10PM 40.8670 -74.0608 170° South 192 221 2,800 -900 Descending FlightAware ADS-B
06:10PM 40.8512 -74.0640 189° South 180 207 2,600 -300 Descending FlightAware ADS-B
06:10PM 40.8476 -74.0658 201° Southwest 179 206 2,700 660 Climbing FlightAware ADS-B
06:10PM 40.8447 -74.0675 204° Southwest 178 205 2,700  Level FlightAware ADS-B
06:10PM 40.8405 -74.0703 207° Southwest 178 205 2,700  Level FlightAware ADS-B
06:10PM 40.8336 -74.0749 207° Southwest 179 206 2,700 -300 Level FlightAware ADS-B
06:11PM 40.8257 -74.0799 206° Southwest 181 208 2,600  Descending FlightAware ADS-B
06:11PM 40.8168 -74.0855 205° Southwest 178 205 2,700 -360 Climbing FlightAware ADS-B
06:11PM 40.7969 -74.0982 206° Southwest 180 207 2,400 -840 Descending FlightAware ADS-B
06:11PM 40.7901 -74.1025 206° Southwest 177 204 2,200 -1,080 Descending FlightAware ADS-B
06:12PM 40.7799 -74.1091 206° Southwest 173 199 2,000 -840 Descending FlightAware ADS-B
06:12PM 40.7691 -74.1160 206° Southwest 165 190 1,800 -1,020 Descending FlightAware ADS-B
06:12PM 40.7589 -74.1224 205° Southwest 160 184 1,500 -1,020 Descending FlightAware ADS-B
06:12PM 40.7537 -74.1257 206° Southwest 151 174 1,400 -840 Descending FlightAware ADS-B
06:12PM 40.7495 -74.1285 207° Southwest 143 165 1,300 -840 Descending FlightAware ADS-B
06:13PM 40.7407 -74.1340 205° Southwest 135 155 1,100 -900 Descending FlightAware ADS-B
06:13PM 40.7374 -74.1362 207° Southwest 137 158 1,000 -660 Descending FlightAware ADS-B
06:13PM 40.7246 -74.1443 206° Southwest 138 159 800 -660 Descending FlightAware ADS-B
06:14PM 40.7070 -74.1550 205° Southwest 136 157 400 -660 Descending FlightAware
06:14PM 40.6970 -74.1620 208° Southwest 136 157 200 -300 Descending FlightAware
06:14PM 40.6850 -74.1700 207° Southwest 136 157 200  Level FlightAware